createdAt,value
2019-05-26T00:00:14.751Z,14.80
2019-05-26T00:02:44.155Z,16.53
2019-05-26T00:05:13.846Z,15.97
2019-05-26T00:07:43.212Z,13.13
2019-05-26T00:10:14.822Z,14.87
2019-05-26T00:12:45.365Z,12.50
2019-05-26T00:15:15.745Z,14.87
2019-05-26T00:17:45.137Z,14.47
2019-05-26T00:20:15.967Z,14.07
2019-05-26T00:22:45.357Z,15.00
2019-05-26T00:25:15.898Z,15.03
2019-05-26T00:27:45.372Z,15.97
2019-05-26T00:30:15.350Z,14.20
2019-05-26T00:32:44.729Z,15.87
2019-05-26T00:35:14.435Z,17.87
2019-05-26T00:37:49.713Z,14.93
2019-05-26T00:40:15.194Z,16.77
2019-05-26T00:42:44.576Z,15.23
2019-05-26T00:45:15.761Z,14.00
2019-05-26T00:47:45.292Z,15.07
2019-05-26T00:50:16.734Z,14.77
2019-05-26T00:52:46.257Z,17.97
2019-05-26T00:55:16.204Z,14.40
2019-05-26T00:57:45.586Z,13.80
2019-05-26T01:00:15.471Z,14.77
2019-05-26T01:02:44.878Z,16.40
2019-05-26T01:05:15.175Z,15.67
2019-05-26T01:07:44.551Z,14.30
2019-05-26T01:10:14.240Z,14.47
2019-05-26T01:12:43.618Z,19.00
2019-05-26T01:15:13.216Z,18.00
2019-05-26T01:17:42.586Z,15.10
2019-05-26T01:20:12.289Z,16.17
2019-05-26T01:22:41.675Z,15.37
2019-05-26T01:25:11.290Z,13.50
2019-05-26T01:27:40.771Z,15.30
2019-05-26T01:30:10.943Z,13.37
2019-05-26T01:32:40.392Z,15.57
2019-05-26T01:35:10.486Z,14.53
2019-05-26T01:37:40.555Z,13.93
2019-05-26T01:40:11.133Z,12.30
2019-05-26T01:42:40.505Z,14.47
2019-05-26T01:45:11.319Z,14.30
2019-05-26T01:47:40.718Z,13.90
2019-05-26T01:50:10.309Z,13.10
2019-05-26T01:52:39.669Z,16.43
2019-05-26T01:55:09.953Z,17.97
2019-05-26T01:57:39.308Z,12.97
2019-05-26T02:00:09.498Z,14.50
2019-05-26T02:02:38.936Z,15.53
2019-05-26T02:05:08.638Z,15.33
2019-05-26T02:07:38.016Z,14.27
2019-05-26T02:10:09.201Z,13.13
2019-05-26T02:12:38.683Z,15.53
2019-05-26T02:15:09.545Z,14.10
2019-05-26T02:17:39.212Z,14.53
2019-05-26T02:20:10.337Z,14.70
2019-05-26T02:22:39.831Z,14.27
2019-05-26T02:25:10.884Z,13.27
2019-05-26T02:27:40.350Z,13.23
2019-05-26T02:30:10.999Z,16.57
2019-05-26T02:32:40.483Z,16.07
2019-05-26T02:35:11.566Z,14.80
2019-05-26T02:37:40.934Z,12.10
2019-05-26T02:40:11.799Z,13.47
2019-05-26T02:42:41.292Z,13.67
2019-05-26T02:45:14.606Z,13.23
2019-05-26T02:47:45.610Z,12.43
2019-05-26T02:50:16.861Z,13.60
2019-05-26T02:52:46.381Z,13.67
2019-05-26T02:55:20.300Z,14.50
2019-05-26T02:57:49.689Z,11.47
2019-05-26T03:00:38.538Z,15.87
2019-05-26T03:03:09.321Z,14.13
2019-05-26T03:05:40.604Z,14.27
2019-05-26T03:08:10.593Z,14.20
2019-05-26T03:10:42.388Z,13.63
2019-05-26T03:13:17.160Z,15.80
2019-05-26T03:15:47.441Z,14.30
2019-05-26T03:18:17.570Z,14.27
2019-05-26T03:20:47.132Z,13.60
2019-05-26T03:23:17.135Z,13.83
2019-05-26T03:25:46.831Z,14.47
2019-05-26T03:28:16.196Z,14.07
2019-05-26T03:30:45.573Z,13.77
2019-05-26T03:33:14.925Z,11.83
2019-05-26T03:35:44.428Z,12.40
2019-05-26T03:38:13.774Z,11.60
2019-05-26T03:40:43.386Z,9.93
2019-05-26T03:43:12.781Z,11.53
2019-05-26T03:45:46.771Z,10.37
2019-05-26T03:48:16.233Z,12.17
2019-05-26T03:50:45.605Z,12.83
2019-05-26T03:53:14.978Z,11.73
2019-05-26T03:55:44.346Z,11.17
2019-05-26T03:58:13.734Z,11.63
2019-05-26T04:00:43.119Z,11.73
2019-05-26T04:03:12.515Z,16.00
2019-05-26T04:05:41.884Z,13.97
2019-05-26T04:08:11.263Z,14.23
2019-05-26T04:10:40.643Z,11.80
2019-05-26T04:13:10.044Z,13.17
2019-05-26T04:15:39.393Z,13.00
2019-05-26T04:18:28.155Z,14.33
2019-05-26T04:20:57.532Z,12.50
2019-05-26T04:23:26.935Z,12.63
2019-05-26T04:25:56.392Z,13.03
2019-05-26T04:28:25.798Z,13.10
2019-05-26T04:30:55.191Z,11.37
2019-05-26T04:33:24.629Z,12.87
2019-05-26T04:35:54.039Z,13.07
2019-05-26T04:38:23.527Z,11.60
2019-05-26T04:40:52.908Z,13.17
2019-05-26T04:43:22.296Z,12.53
2019-05-26T04:45:51.706Z,14.37
2019-05-26T04:48:21.070Z,12.50
2019-05-26T04:50:50.503Z,13.67
2019-05-26T04:53:19.887Z,12.73
2019-05-26T04:55:49.433Z,14.60
2019-05-26T04:58:18.832Z,16.83
2019-05-26T05:00:48.313Z,16.90
2019-05-26T05:03:17.755Z,17.43
2019-05-26T05:05:47.248Z,17.50
2019-05-26T05:08:16.623Z,15.63
2019-05-26T05:10:46.028Z,15.03
2019-05-26T05:13:15.417Z,16.23
2019-05-26T05:15:44.847Z,15.33
2019-05-26T05:18:14.230Z,16.97
2019-05-26T05:20:43.611Z,19.43
2019-05-26T05:23:13.095Z,15.63
2019-05-26T05:25:42.488Z,17.30
2019-05-26T05:28:11.901Z,19.47
2019-05-26T05:30:41.286Z,18.73
2019-05-26T05:33:10.765Z,21.07
2019-05-26T05:35:40.158Z,19.17
2019-05-26T05:38:09.570Z,19.43
2019-05-26T05:40:38.963Z,18.20
2019-05-26T05:43:08.349Z,17.30
2019-05-26T05:45:37.746Z,19.07
2019-05-26T05:48:07.214Z,18.37
2019-05-26T05:50:39.043Z,17.30
2019-05-26T05:53:07.751Z,17.07
2019-05-26T05:55:37.169Z,20.83
2019-05-26T05:58:06.572Z,21.37
2019-05-26T06:00:35.996Z,20.53
2019-05-26T06:03:05.465Z,22.07
2019-05-26T06:05:34.886Z,23.87
2019-05-26T06:08:04.355Z,21.53
2019-05-26T06:10:33.883Z,27.07
2019-05-26T06:13:03.306Z,28.10
2019-05-26T06:15:32.840Z,30.17
2019-05-26T06:18:02.267Z,29.20
2019-05-26T06:20:31.814Z,36.73
2019-05-26T06:23:01.230Z,40.63
2019-05-26T06:25:30.776Z,49.43
2019-05-26T06:28:00.232Z,56.80
2019-05-26T06:30:29.764Z,41.57
2019-05-26T06:32:59.142Z,40.80
2019-05-26T06:35:32.289Z,36.67
2019-05-26T06:37:59.660Z,36.60
2019-05-26T06:40:29.132Z,38.90
2019-05-26T06:42:58.711Z,37.20
2019-05-26T06:45:28.185Z,35.53
2019-05-26T06:47:57.858Z,36.93
2019-05-26T06:50:27.279Z,37.10
2019-05-26T06:52:56.673Z,39.77
2019-05-26T06:55:26.225Z,38.27
2019-05-26T06:57:55.624Z,42.90
2019-05-26T07:00:25.259Z,46.43
2019-05-26T07:02:54.663Z,40.70
2019-05-26T07:05:24.070Z,38.10
2019-05-26T07:07:53.570Z,40.10
2019-05-26T07:10:23.035Z,41.73
2019-05-26T07:12:52.460Z,38.37
2019-05-26T07:15:22.166Z,40.57
2019-05-26T07:17:51.606Z,37.10
2019-05-26T07:20:21.210Z,42.90
2019-05-26T07:22:50.643Z,39.60
2019-05-26T07:25:20.138Z,40.43
2019-05-26T07:27:49.548Z,35.07
2019-05-26T07:30:23.313Z,37.83
2019-05-26T07:32:50.582Z,35.10
2019-05-26T07:35:19.972Z,32.93
2019-05-26T07:37:49.467Z,34.30
2019-05-26T07:40:19.193Z,31.30
2019-05-26T07:42:48.595Z,28.10
2019-05-26T07:45:18.609Z,27.70
2019-05-26T07:47:48.011Z,23.17
2019-05-26T07:50:17.679Z,22.77
2019-05-26T07:52:47.074Z,22.30
2019-05-26T07:55:16.559Z,23.93
2019-05-26T07:57:45.954Z,20.80
2019-05-26T08:00:15.781Z,23.33
2019-05-26T08:02:45.280Z,19.83
2019-05-26T08:05:14.908Z,22.47
2019-05-26T08:07:44.311Z,21.37
2019-05-26T08:10:14.058Z,19.40
2019-05-26T08:12:43.469Z,22.20
2019-05-26T08:15:13.344Z,21.93
2019-05-26T08:17:42.789Z,23.13
2019-05-26T08:20:13.778Z,21.93
2019-05-26T08:22:43.267Z,17.33
2019-05-26T08:25:13.196Z,18.00
2019-05-26T08:27:42.630Z,18.23
2019-05-26T08:30:12.392Z,21.27
2019-05-26T08:32:41.793Z,18.10
2019-05-26T08:35:11.618Z,15.47
2019-05-26T08:37:41.043Z,18.12
2019-05-26T08:40:19.672Z,14.97
2019-05-26T08:42:51.088Z,14.33
2019-05-26T08:45:23.916Z,13.50
2019-05-26T08:47:53.528Z,12.33
2019-05-26T08:50:23.147Z,12.63
2019-05-26T08:52:52.788Z,11.93
2019-05-26T08:55:23.691Z,12.03
2019-05-26T08:57:53.209Z,10.68
2019-05-26T09:00:23.512Z,9.20
2019-05-26T09:02:52.988Z,7.37
2019-05-26T09:05:23.530Z,7.93
2019-05-26T09:07:53.068Z,7.57
2019-05-26T09:10:22.662Z,8.10
2019-05-26T09:13:00.824Z,6.40
2019-05-26T09:15:23.501Z,5.93
2019-05-26T09:17:53.070Z,6.87
2019-05-26T09:20:22.788Z,7.10
2019-05-26T09:22:52.278Z,8.30
2019-05-26T09:25:21.881Z,7.67
2019-05-26T09:27:51.289Z,6.67
2019-05-26T09:30:21.405Z,7.92
2019-05-26T09:32:50.984Z,6.40
2019-05-26T09:35:20.543Z,5.00
2019-05-26T09:37:49.998Z,7.50
2019-05-26T09:40:20.095Z,7.40
2019-05-26T09:42:49.606Z,7.73
2019-05-26T09:45:19.855Z,10.53
2019-05-26T09:47:49.364Z,5.53
2019-05-26T09:50:19.618Z,7.03
2019-05-26T09:52:49.088Z,9.95
2019-05-26T09:55:18.800Z,6.10
2019-05-26T09:57:48.191Z,5.30
2019-05-26T10:00:19.028Z,3.77
2019-05-26T10:02:48.408Z,3.10
2019-05-26T10:05:18.716Z,4.40
2019-05-26T10:07:48.118Z,6.10
2019-05-26T10:10:18.022Z,5.92
2019-05-26T10:12:47.532Z,6.03
2019-05-26T10:15:19.975Z,4.00
2019-05-26T10:17:49.375Z,3.55
2019-05-26T10:20:19.430Z,3.00
2019-05-26T10:22:48.852Z,3.40
2019-05-26T10:25:18.487Z,5.43
2019-05-26T10:27:47.975Z,3.77
2019-05-26T10:30:18.038Z,3.58
2019-05-26T10:32:47.502Z,5.17
2019-05-26T10:35:17.132Z,4.53
2019-05-26T10:37:46.597Z,3.20
2019-05-26T10:40:16.634Z,2.98
2019-05-26T10:42:46.024Z,7.05
2019-05-26T10:45:16.266Z,2.87
2019-05-26T10:47:45.737Z,3.72
2019-05-26T10:50:17.875Z,3.35
2019-05-26T10:52:47.270Z,4.50
2019-05-26T10:55:16.973Z,3.58
2019-05-26T10:57:46.433Z,6.17
2019-05-26T11:00:17.441Z,4.83
2019-05-26T11:02:47.009Z,3.15
2019-05-26T11:05:16.565Z,5.35
2019-05-26T11:07:45.981Z,4.53
2019-05-26T11:10:15.872Z,3.85
2019-05-26T11:12:45.292Z,3.08
2019-05-26T11:15:16.508Z,6.53
2019-05-26T11:17:45.996Z,5.62
2019-05-26T11:20:15.717Z,3.20
2019-05-26T11:22:45.154Z,5.40
2019-05-26T11:25:15.728Z,3.92
2019-05-26T11:27:45.229Z,3.72
2019-05-26T11:30:16.925Z,5.33
2019-05-26T11:32:46.409Z,4.10
2019-05-26T11:35:18.895Z,4.28
2019-05-26T11:37:48.275Z,2.95
2019-05-26T11:40:18.560Z,3.50
2019-05-26T11:42:48.029Z,3.20
2019-05-26T11:45:17.817Z,3.72
2019-05-26T11:47:47.264Z,3.75
2019-05-26T11:50:17.365Z,4.78
2019-05-26T11:52:47.453Z,2.92
2019-05-26T11:55:17.464Z,3.65
2019-05-26T11:57:46.987Z,4.45
2019-05-26T12:00:17.171Z,3.02
2019-05-26T12:02:47.385Z,2.72
2019-05-26T12:05:17.898Z,2.17
2019-05-26T12:07:47.492Z,2.30
2019-05-26T12:10:17.529Z,2.02
2019-05-26T12:12:46.917Z,2.02
2019-05-26T12:15:17.522Z,2.45
2019-05-26T12:17:46.956Z,2.40
2019-05-26T12:20:16.767Z,3.37
2019-05-26T12:22:46.148Z,2.42
2019-05-26T12:25:16.947Z,2.30
2019-05-26T12:27:46.441Z,3.02
2019-05-26T12:30:16.657Z,2.58
2019-05-26T12:32:46.080Z,2.58
2019-05-26T12:35:15.858Z,2.45
2019-05-26T12:37:48.244Z,2.20
2019-05-26T12:40:17.275Z,2.10
2019-05-26T12:42:46.701Z,3.37
2019-05-26T12:45:18.036Z,2.58
2019-05-26T12:47:47.473Z,2.65
2019-05-26T12:50:17.517Z,3.75
2019-05-26T12:52:46.921Z,2.87
2019-05-26T12:55:16.494Z,2.02
2019-05-26T12:57:45.871Z,3.30
2019-05-26T13:00:16.478Z,2.20
2019-05-26T13:02:46.186Z,2.02
2019-05-26T13:05:16.470Z,2.35
2019-05-26T13:07:45.889Z,1.90
2019-05-26T13:10:16.534Z,2.30
2019-05-26T13:12:46.055Z,2.75
2019-05-26T13:15:16.053Z,2.35
2019-05-26T13:17:45.462Z,2.12
2019-05-26T13:20:16.335Z,2.40
2019-05-26T13:22:45.828Z,2.83
2019-05-26T13:25:15.735Z,1.92
2019-05-26T13:27:45.117Z,2.85
2019-05-26T13:30:19.666Z,2.65
2019-05-26T13:32:49.846Z,2.98
2019-05-26T13:35:20.167Z,2.35
2019-05-26T13:37:49.746Z,3.00
2019-05-26T13:40:19.380Z,2.17
2019-05-26T13:42:48.917Z,2.30
2019-05-26T13:45:22.856Z,2.10
2019-05-26T13:47:50.636Z,2.20
2019-05-26T13:50:22.409Z,3.87
2019-05-26T13:52:51.840Z,3.30
2019-05-26T13:55:22.136Z,2.17
2019-05-26T13:57:51.638Z,2.98
2019-05-26T14:00:23.520Z,2.17
2019-05-26T14:02:53.071Z,2.47
2019-05-26T14:05:22.598Z,3.12
2019-05-26T14:07:52.062Z,3.72
2019-05-26T14:10:38.394Z,2.27
2019-05-26T14:13:08.834Z,3.20
2019-05-26T14:15:39.320Z,2.70
2019-05-26T14:18:09.458Z,2.85
2019-05-26T14:20:42.976Z,3.65
2019-05-26T14:23:12.947Z,2.87
2019-05-26T14:25:42.341Z,2.52
2019-05-26T14:28:11.874Z,2.20
2019-05-26T14:30:41.335Z,2.90
2019-05-26T14:33:10.806Z,3.15
2019-05-26T14:35:40.228Z,3.02
2019-05-26T14:38:09.842Z,2.20
2019-05-26T14:40:39.338Z,2.58
2019-05-26T14:43:08.736Z,2.40
2019-05-26T14:45:52.449Z,2.27
2019-05-26T14:48:09.376Z,2.15
2019-05-26T14:50:40.860Z,3.67
2019-05-26T14:53:10.071Z,4.20
2019-05-26T14:55:39.476Z,2.27
2019-05-26T14:58:15.517Z,2.72
2019-05-26T15:00:40.154Z,2.45
2019-05-26T15:03:09.631Z,2.70
2019-05-26T15:05:39.060Z,3.40
2019-05-26T15:08:08.523Z,2.47
2019-05-26T15:10:37.949Z,2.70
2019-05-26T15:13:07.348Z,4.15
2019-05-26T15:15:36.750Z,2.80
2019-05-26T15:18:06.321Z,1.90
2019-05-26T15:20:35.712Z,4.60
2019-05-26T15:23:05.276Z,2.40
2019-05-26T15:25:34.799Z,3.87
2019-05-26T15:28:04.349Z,1.98
2019-05-26T15:30:33.815Z,2.22
2019-05-26T15:33:03.233Z,2.47
2019-05-26T15:35:32.632Z,1.90
2019-05-26T15:38:02.176Z,2.00
2019-05-26T15:40:31.671Z,3.05
2019-05-26T15:43:01.090Z,2.35
2019-05-26T15:45:30.558Z,2.25
2019-05-26T15:47:59.971Z,2.05
2019-05-26T15:50:29.441Z,2.08
2019-05-26T15:52:59.039Z,2.67
2019-05-26T15:55:28.600Z,3.00
2019-05-26T15:57:58.122Z,2.67
2019-05-26T16:00:27.618Z,3.20
2019-05-26T16:02:57.091Z,2.30
2019-05-26T16:05:26.577Z,2.25
2019-05-26T16:07:56.122Z,2.40
2019-05-26T16:10:25.532Z,2.35
2019-05-26T16:12:55.042Z,2.60
2019-05-26T16:15:24.436Z,2.70
2019-05-26T16:17:53.940Z,2.60
2019-05-26T16:20:23.484Z,2.12
2019-05-26T16:22:52.919Z,2.67
2019-05-26T16:25:22.301Z,2.40
2019-05-26T16:27:51.767Z,2.12
2019-05-26T16:30:21.348Z,2.40
2019-05-26T16:32:50.777Z,2.92
2019-05-26T16:35:20.257Z,3.60
2019-05-26T16:37:49.686Z,2.17
2019-05-26T16:41:10.887Z,3.42
2019-05-26T16:43:40.309Z,4.08
2019-05-26T16:46:09.815Z,4.05
2019-05-26T16:48:39.303Z,3.25
2019-05-26T16:51:08.740Z,2.75
2019-05-26T16:53:38.247Z,4.25
2019-05-26T16:56:07.819Z,3.12
2019-05-26T16:58:37.190Z,2.37
2019-05-26T17:01:06.672Z,3.42
2019-05-26T17:03:36.193Z,2.77
2019-05-26T17:06:08.194Z,2.70
2019-05-26T17:08:36.826Z,2.67
2019-05-26T17:11:06.427Z,2.70
2019-05-26T17:13:35.830Z,3.55
2019-05-26T17:16:05.332Z,4.22
2019-05-26T17:18:34.756Z,3.10
2019-05-26T17:21:04.511Z,3.17
2019-05-26T17:23:33.964Z,3.37
2019-05-26T17:26:03.370Z,4.55
2019-05-26T17:28:32.795Z,4.12
2019-05-26T17:31:02.206Z,4.53
2019-05-26T17:33:31.702Z,3.40
2019-05-26T17:36:01.110Z,3.80
2019-05-26T17:38:30.517Z,2.80
2019-05-26T17:40:59.931Z,2.93
2019-05-26T17:43:29.328Z,4.13
2019-05-26T17:45:58.824Z,4.05
2019-05-26T17:48:28.303Z,3.77
2019-05-26T17:50:57.699Z,3.15
2019-05-26T17:53:27.145Z,4.00
2019-05-26T17:55:56.607Z,3.27
2019-05-26T17:58:26.010Z,3.27
2019-05-26T18:00:55.460Z,2.77
2019-05-26T18:03:24.994Z,2.93
2019-05-26T18:05:54.503Z,2.85
2019-05-26T18:08:23.934Z,3.58
2019-05-26T18:10:53.419Z,3.50
2019-05-26T18:13:22.913Z,3.50
2019-05-26T18:15:52.382Z,4.43
2019-05-26T18:18:21.876Z,2.80
2019-05-26T18:20:51.254Z,4.37
2019-05-26T18:23:20.728Z,2.55
2019-05-26T18:25:50.287Z,4.37
2019-05-26T18:28:19.770Z,3.17
2019-05-26T18:30:49.136Z,5.43
2019-05-26T18:33:18.587Z,3.07
2019-05-26T18:35:47.984Z,3.07
2019-05-26T18:38:17.452Z,4.37
2019-05-26T18:40:47.048Z,4.55
2019-05-26T18:43:16.525Z,3.60
2019-05-26T18:45:46.150Z,3.50
2019-05-26T18:48:15.672Z,3.10
2019-05-26T18:50:45.151Z,2.90
2019-05-26T18:53:14.560Z,3.13
2019-05-26T18:55:44.090Z,3.93
2019-05-26T18:58:13.626Z,3.37
2019-05-26T19:00:43.115Z,4.50
2019-05-26T19:03:12.529Z,2.97
2019-05-26T19:05:42.037Z,2.60
2019-05-26T19:08:11.457Z,3.30
2019-05-26T19:10:40.843Z,2.97
2019-05-26T19:13:10.815Z,2.97
2019-05-26T19:15:41.349Z,3.83
2019-05-26T19:18:20.028Z,2.57
2019-05-26T19:20:42.067Z,2.60
2019-05-26T19:23:11.535Z,3.17
2019-05-26T19:25:41.073Z,5.93
2019-05-26T19:28:10.546Z,5.07
2019-05-26T19:30:39.951Z,4.60
2019-05-26T19:33:09.506Z,2.63
2019-05-26T19:35:38.919Z,2.90
2019-05-26T19:38:08.334Z,3.27
2019-05-26T19:40:37.820Z,4.77
2019-05-26T19:43:07.221Z,3.03
2019-05-26T19:45:36.776Z,3.17
2019-05-26T19:48:06.331Z,5.10
2019-05-26T19:50:35.735Z,5.30
2019-05-26T19:53:05.440Z,2.63
2019-05-26T19:55:34.882Z,6.33
2019-05-26T19:58:04.435Z,4.13
2019-05-26T20:00:33.996Z,2.50
2019-05-26T20:03:03.477Z,4.00
2019-05-26T20:05:33.012Z,5.93
2019-05-26T20:08:02.387Z,3.67
2019-05-26T20:10:31.853Z,3.33
2019-05-26T20:13:01.365Z,3.37
2019-05-26T20:15:30.973Z,4.43
2019-05-26T20:18:00.479Z,3.00
2019-05-26T20:20:29.895Z,3.10
2019-05-26T20:22:59.331Z,2.97
2019-05-26T20:25:29.063Z,2.77
2019-05-26T20:27:58.549Z,3.10
2019-05-26T20:30:28.037Z,4.87
2019-05-26T20:32:57.595Z,3.80
2019-05-26T20:35:27.124Z,3.10
2019-05-26T20:37:56.493Z,3.40
2019-05-26T20:40:27.573Z,3.17
2019-05-26T20:42:57.040Z,3.70
2019-05-26T20:45:26.524Z,3.77
2019-05-26T20:47:56.072Z,3.60
2019-05-26T20:50:29.611Z,5.53
2019-05-26T20:52:56.692Z,3.57
2019-05-26T20:55:26.114Z,3.80
2019-05-26T20:57:55.552Z,3.30
2019-05-26T21:00:25.355Z,3.77
2019-05-26T21:02:54.855Z,2.60
2019-05-26T21:05:24.327Z,4.50
2019-05-26T21:07:53.812Z,3.53
2019-05-26T21:10:23.217Z,3.30
2019-05-26T21:12:52.685Z,4.07
2019-05-26T21:15:22.076Z,3.60
2019-05-26T21:17:51.478Z,4.20
2019-05-26T21:20:21.199Z,5.17
2019-05-26T21:22:50.964Z,4.27
2019-05-26T21:25:20.646Z,5.73
2019-05-26T21:27:50.063Z,4.13
2019-05-26T21:30:20.443Z,5.00
2019-05-26T21:32:49.865Z,6.57
2019-05-26T21:35:19.310Z,4.60
2019-05-26T21:37:48.793Z,4.10
2019-05-26T21:40:18.243Z,3.13
2019-05-26T21:42:47.678Z,3.23
2019-05-26T21:45:17.581Z,4.00
2019-05-26T21:47:47.039Z,4.17
2019-05-26T21:50:16.698Z,4.97
2019-05-26T21:52:46.112Z,5.03
2019-05-26T21:55:15.919Z,4.97
2019-05-26T21:57:45.325Z,3.30
2019-05-26T22:00:23.597Z,3.63
2019-05-26T22:02:53.072Z,8.03
2019-05-26T22:05:22.525Z,7.70
2019-05-26T22:07:51.991Z,3.90
2019-05-26T22:10:21.607Z,3.67
2019-05-26T22:12:51.106Z,3.90
2019-05-26T22:15:20.639Z,3.97
2019-05-26T22:17:50.034Z,3.73
2019-05-26T22:20:19.886Z,5.07
2019-05-26T22:22:49.408Z,4.87
2019-05-26T22:25:18.945Z,4.83
2019-05-26T22:27:48.352Z,3.63
2019-05-26T22:30:17.899Z,4.10
2019-05-26T22:32:47.301Z,4.67
2019-05-26T22:35:16.759Z,4.23
2019-05-26T22:37:46.163Z,5.50
2019-05-26T22:40:16.072Z,4.67
2019-05-26T22:42:45.480Z,7.57
2019-05-26T22:45:15.807Z,5.90
2019-05-26T22:47:45.239Z,5.97
2019-05-26T22:50:16.072Z,7.00
2019-05-26T22:52:45.456Z,6.83
2019-05-26T22:55:14.979Z,4.97
2019-05-26T22:57:44.409Z,5.83
2019-05-26T23:00:15.214Z,5.10
2019-05-26T23:02:44.801Z,8.63
2019-05-26T23:05:15.395Z,7.03
2019-05-26T23:07:44.781Z,5.97
2019-05-26T23:10:14.640Z,7.37
2019-05-26T23:12:44.117Z,7.87
2019-05-26T23:15:13.678Z,8.10
2019-05-26T23:17:43.083Z,7.27
2019-05-26T23:20:14.495Z,7.80
2019-05-26T23:22:43.946Z,7.27
2019-05-26T23:25:13.845Z,7.40
2019-05-26T23:27:43.259Z,7.73
2019-05-26T23:34:00.353Z,8.57
2019-05-26T23:36:29.734Z,10.00
2019-05-26T23:38:59.158Z,10.57
2019-05-26T23:41:28.559Z,11.80
2019-05-26T23:43:57.951Z,10.20
2019-05-26T23:46:27.353Z,10.53
2019-05-26T23:48:56.739Z,13.40
2019-05-26T23:51:26.171Z,11.40
2019-05-26T23:53:55.576Z,11.10
2019-05-26T23:56:24.949Z,11.87
2019-05-26T23:58:54.424Z,11.63
